createdAt,value
2017-01-21T00:01:04.006Z,-1.73
2017-01-21T00:02:15.412Z,-1.85
2017-01-21T00:03:26.802Z,-1.86
2017-01-21T00:04:38.248Z,-1.76
2017-01-21T00:05:49.641Z,-1.79
2017-01-21T00:07:01.035Z,-1.81
2017-01-21T00:08:12.436Z,-1.79
2017-01-21T00:09:23.825Z,-1.82
2017-01-21T00:10:35.275Z,-1.81
2017-01-21T00:11:46.671Z,-1.82
2017-01-21T00:12:58.073Z,-1.76
2017-01-21T00:14:09.460Z,-1.88
2017-01-21T00:15:20.855Z,-1.85
2017-01-21T00:16:32.301Z,-1.84
2017-01-21T00:17:43.698Z,-1.76
2017-01-21T00:18:55.095Z,-1.84
2017-01-21T00:20:06.508Z,-1.73
2017-01-21T00:21:17.903Z,-1.84
2017-01-21T00:22:29.343Z,-1.78
2017-01-21T00:23:40.740Z,-1.85
2017-01-21T00:24:52.345Z,-1.91
2017-01-21T00:26:03.747Z,-1.89
2017-01-21T00:27:15.137Z,-1.92
2017-01-21T00:28:26.788Z,-1.91
2017-01-21T00:29:38.185Z,-1.92
2017-01-21T00:30:49.582Z,-1.92
2017-01-21T00:32:00.974Z,-1.88
2017-01-21T00:33:12.381Z,-1.97
2017-01-21T00:34:23.817Z,-1.84
2017-01-21T00:35:35.216Z,-1.88
2017-01-21T00:36:46.630Z,-1.85
2017-01-21T00:37:58.024Z,-1.79
2017-01-21T00:39:09.630Z,-1.84
2017-01-21T00:40:21.066Z,-1.85
2017-01-21T00:41:32.460Z,-1.82
2017-01-21T00:42:43.860Z,-1.76
2017-01-21T00:43:55.259Z,-1.84
2017-01-21T00:45:06.653Z,-1.89
2017-01-21T00:46:18.096Z,-1.85
2017-01-21T00:47:29.488Z,-1.82
2017-01-21T00:48:40.887Z,-1.82
2017-01-21T00:49:52.276Z,-1.85
2017-01-21T00:51:03.676Z,-1.82
2017-01-21T00:52:15.122Z,-1.85
2017-01-21T00:53:26.716Z,-1.91
2017-01-21T00:54:38.116Z,-1.89
2017-01-21T00:55:49.512Z,-1.88
2017-01-21T00:57:00.909Z,-1.88
2017-01-21T00:58:12.355Z,-1.96
2017-01-21T00:59:23.754Z,-1.99
2017-01-21T01:00:35.143Z,-1.88
2017-01-21T01:01:46.732Z,-1.88
2017-01-21T01:02:58.139Z,-1.99
2017-01-21T01:04:09.586Z,-1.96
2017-01-21T01:05:20.986Z,-1.99
2017-01-21T01:06:32.379Z,-1.94
2017-01-21T01:07:43.774Z,-1.97
2017-01-21T01:08:55.171Z,-2.02
2017-01-21T01:10:06.613Z,-1.96
2017-01-21T01:11:18.028Z,-1.99
2017-01-21T01:12:29.419Z,-1.92
2017-01-21T01:13:40.826Z,-1.94
2017-01-21T01:14:52.224Z,-1.92
2017-01-21T01:16:03.670Z,-1.94
2017-01-21T01:17:15.079Z,-1.92
2017-01-21T01:18:26.466Z,-1.97
2017-01-21T01:19:37.855Z,-2.02
2017-01-21T01:20:49.242Z,-2.02
2017-01-21T01:22:00.893Z,-1.97
2017-01-21T01:23:12.290Z,-2.02
2017-01-21T01:24:23.682Z,-1.92
2017-01-21T01:25:35.070Z,-1.97
2017-01-21T01:26:46.870Z,-1.96
2017-01-21T01:27:58.519Z,-2.05
2017-01-21T01:29:09.919Z,-2.05
2017-01-21T01:30:21.315Z,-2.02
2017-01-21T01:31:32.906Z,-2.03
2017-01-21T01:32:44.326Z,-2.06
2017-01-21T01:33:55.771Z,-2.03
2017-01-21T01:35:07.163Z,-2.12
2017-01-21T01:36:18.560Z,-2.15
2017-01-21T01:37:29.954Z,-2.12
2017-01-21T01:38:41.343Z,-2.12
2017-01-21T01:39:52.779Z,-2.1
2017-01-21T01:41:04.171Z,-2.15
2017-01-21T01:42:15.574Z,-2.1
2017-01-21T01:43:27.000Z,-2.1
2017-01-21T01:44:38.392Z,-2.03
2017-01-21T01:45:49.859Z,-2.1
2017-01-21T01:47:01.250Z,-2.14
2017-01-21T01:48:12.669Z,-2.12
2017-01-21T01:49:24.066Z,-2.15
2017-01-21T01:50:35.668Z,-2.14
2017-01-21T01:51:47.115Z,-2.14
2017-01-21T01:52:58.507Z,-2.12
2017-01-21T01:54:09.896Z,-2.12
2017-01-21T01:55:21.294Z,-2.15
2017-01-21T01:56:32.895Z,-2.14
2017-01-21T01:57:44.338Z,-2.14
2017-01-21T01:58:55.730Z,-2.1
2017-01-21T02:00:07.126Z,-2.2
2017-01-21T02:01:18.513Z,-2.23
2017-01-21T02:02:29.932Z,-2.25
2017-01-21T02:03:41.379Z,-2.12
2017-01-21T02:04:52.771Z,-2.12
2017-01-21T02:06:04.163Z,-2.14
2017-01-21T02:07:15.552Z,-2.18
2017-01-21T02:08:26.954Z,-2.18
2017-01-21T02:09:38.401Z,-2.17
2017-01-21T02:10:49.801Z,-2.28
2017-01-21T02:12:01.392Z,-2.14
2017-01-21T02:13:12.812Z,-2.25
2017-01-21T02:14:24.201Z,-2.21
2017-01-21T02:15:35.845Z,-2.18
2017-01-21T02:16:47.241Z,-2.1
2017-01-21T02:17:58.637Z,-2.21
2017-01-21T02:19:10.034Z,-2.25
2017-01-21T02:20:21.431Z,-2.2
2017-01-21T02:21:32.875Z,-2.25
2017-01-21T02:22:44.269Z,-2.24
2017-01-21T02:23:55.867Z,-2.21
2017-01-21T02:25:07.265Z,-2.18
2017-01-21T02:26:18.660Z,-2.25
2017-01-21T02:27:30.105Z,-2.24
2017-01-21T02:28:41.507Z,-2.25
2017-01-21T02:29:52.905Z,-2.25
2017-01-21T02:31:04.297Z,-2.28
2017-01-21T02:32:15.688Z,-2.2
2017-01-21T02:33:27.342Z,-2.27
2017-01-21T02:34:38.941Z,-2.3
2017-01-21T02:35:50.331Z,-2.3
2017-01-21T02:37:01.718Z,-2.25
2017-01-21T02:38:13.311Z,-2.17
2017-01-21T02:39:24.942Z,-2.3
2017-01-21T02:40:36.544Z,-2.25
2017-01-21T02:41:47.944Z,-2.25
2017-01-21T02:42:59.537Z,-2.25
2017-01-21T02:44:10.932Z,-2.25
2017-01-21T02:45:22.383Z,-2.15
2017-01-21T02:46:33.973Z,-2.27
2017-01-21T02:47:45.367Z,-2.24
2017-01-21T02:48:56.765Z,-2.17
2017-01-21T02:50:08.160Z,-2.3
2017-01-21T02:51:20.002Z,-2.23
2017-01-21T02:52:31.399Z,-2.3
2017-01-21T02:53:42.792Z,-2.3
2017-01-21T02:54:54.184Z,-2.27
2017-01-21T02:56:05.581Z,-2.25
2017-01-21T02:57:17.026Z,-2.3
2017-01-21T02:58:28.428Z,-2.37
2017-01-21T02:59:40.216Z,-2.25
2017-01-21T03:00:51.616Z,-2.34
2017-01-21T03:02:03.005Z,-2.42
2017-01-21T03:03:14.443Z,-2.43
2017-01-21T03:04:25.836Z,-2.34
2017-01-21T03:05:37.253Z,-2.34
2017-01-21T03:06:48.652Z,-2.36
2017-01-21T03:08:00.053Z,-2.47
2017-01-21T03:09:11.502Z,-2.34
2017-01-21T03:10:23.104Z,-2.53
2017-01-21T03:11:34.507Z,-2.43
2017-01-21T03:12:45.909Z,-2.47
2017-01-21T03:13:57.311Z,-2.49
2017-01-21T03:15:08.761Z,-2.53
2017-01-21T03:16:20.151Z,-2.57
2017-01-21T03:17:31.546Z,-2.46
2017-01-21T03:18:42.941Z,-2.49
2017-01-21T03:19:54.338Z,-2.39
2017-01-21T03:21:05.781Z,-2.44
2017-01-21T03:22:17.176Z,-2.43
2017-01-21T03:23:28.571Z,-2.39
2017-01-21T03:24:39.964Z,-2.42
2017-01-21T03:25:51.354Z,-2.43
2017-01-21T03:27:02.798Z,-2.44
2017-01-21T03:28:14.199Z,-2.37
2017-01-21T03:29:25.585Z,-2.43
2017-01-21T03:30:36.970Z,-2.43
2017-01-21T03:31:48.559Z,-2.4
2017-01-21T03:33:00.001Z,-2.4
2017-01-21T03:34:11.403Z,-2.4
2017-01-21T03:35:22.812Z,-2.3
2017-01-21T03:36:34.209Z,-2.39
2017-01-21T03:37:45.601Z,-2.36
2017-01-21T03:38:57.051Z,-2.42
2017-01-21T03:40:08.448Z,-2.37
2017-01-21T03:41:19.844Z,-2.44
2017-01-21T03:42:31.234Z,-2.37
2017-01-21T03:43:42.643Z,-2.36
2017-01-21T03:44:54.090Z,-2.39
2017-01-21T03:46:05.504Z,-2.4
2017-01-21T03:47:16.902Z,-2.4
2017-01-21T03:48:28.296Z,-2.39
2017-01-21T03:49:39.686Z,-2.42
2017-01-21T03:50:51.131Z,-2.4
2017-01-21T03:52:02.521Z,-2.4
2017-01-21T03:53:13.905Z,-2.43
2017-01-21T03:54:25.300Z,-2.39
2017-01-21T03:55:36.689Z,-2.42
2017-01-21T03:56:48.131Z,-2.32
2017-01-21T03:57:59.524Z,-2.4
2017-01-21T03:59:11.118Z,-2.46
2017-01-21T04:00:22.514Z,-2.36
2017-01-21T04:01:33.909Z,-2.37
2017-01-21T04:02:45.357Z,-2.54
2017-01-21T04:03:56.749Z,-2.39
2017-01-21T04:05:08.134Z,-2.4
2017-01-21T04:06:19.528Z,-2.47
2017-01-21T04:07:31.123Z,-2.54
2017-01-21T04:08:42.576Z,-2.49
2017-01-21T04:09:53.978Z,-2.44
2017-01-21T04:11:05.371Z,-2.49
2017-01-21T04:12:16.789Z,-2.42
2017-01-21T04:13:28.191Z,-2.42
2017-01-21T04:14:39.633Z,-2.39
2017-01-21T04:15:51.028Z,-2.42
2017-01-21T04:17:02.620Z,-2.37
2017-01-21T04:18:14.215Z,-2.39
2017-01-21T04:19:25.609Z,-2.37
2017-01-21T04:20:37.251Z,-2.42
2017-01-21T04:21:48.835Z,-2.46
2017-01-21T04:23:00.230Z,-2.49
2017-01-21T04:24:11.627Z,-2.47
2017-01-21T04:25:23.029Z,-2.61
2017-01-21T04:26:34.681Z,-2.57
2017-01-21T04:27:46.065Z,-2.55
2017-01-21T04:28:57.457Z,-2.61
2017-01-21T04:30:09.252Z,-2.6
2017-01-21T04:31:20.643Z,-2.5
2017-01-21T04:32:32.285Z,-2.64
2017-01-21T04:33:43.681Z,-2.53
2017-01-21T04:34:55.076Z,-2.55
2017-01-21T04:36:06.487Z,-2.61
2017-01-21T04:37:17.877Z,-2.65
2017-01-21T04:38:29.324Z,-2.67
2017-01-21T04:39:40.911Z,-2.67
2017-01-21T04:40:52.508Z,-2.6
2017-01-21T04:42:03.908Z,-2.44
2017-01-21T04:43:15.305Z,-2.64
2017-01-21T04:44:26.739Z,-2.49
2017-01-21T04:45:38.129Z,-2.53
2017-01-21T04:46:49.522Z,-2.6
2017-01-21T04:48:00.916Z,-2.57
2017-01-21T04:49:12.337Z,-2.68
2017-01-21T04:50:23.777Z,-2.6
2017-01-21T04:51:35.167Z,-2.55
2017-01-21T04:52:46.563Z,-2.57
2017-01-21T04:53:57.974Z,-2.6
2017-01-21T04:55:09.368Z,-2.58
2017-01-21T04:56:20.806Z,-2.54
2017-01-21T04:57:32.203Z,-2.6
2017-01-21T04:58:43.596Z,-2.62
2017-01-21T04:59:54.990Z,-2.58
2017-01-21T05:01:06.393Z,-2.68
2017-01-21T05:02:17.842Z,-2.7
2017-01-21T05:03:29.242Z,-2.75
2017-01-21T05:04:40.633Z,-2.67
2017-01-21T05:05:52.230Z,-2.73
2017-01-21T05:07:03.621Z,-2.72
2017-01-21T05:08:15.053Z,-2.72
2017-01-21T05:09:26.447Z,-2.75
2017-01-21T05:10:38.244Z,-2.67
2017-01-21T05:11:49.636Z,-2.68
2017-01-21T05:13:01.028Z,-2.61
2017-01-21T05:14:12.470Z,-2.61
2017-01-21T05:15:23.867Z,-2.72
2017-01-21T05:16:35.263Z,-2.72
2017-01-21T05:17:46.668Z,-2.68
2017-01-21T05:18:58.267Z,-2.62
2017-01-21T05:20:09.716Z,-2.75
2017-01-21T05:21:21.106Z,-2.6
2017-01-21T05:22:32.517Z,-2.67
2017-01-21T05:23:43.915Z,-2.61
2017-01-21T05:24:55.307Z,-2.7
2017-01-21T05:26:06.754Z,-2.67
2017-01-21T05:27:18.143Z,-2.75
2017-01-21T05:28:29.537Z,-2.72
2017-01-21T05:29:41.157Z,-2.73
2017-01-21T05:30:52.549Z,-2.64
2017-01-21T05:32:03.988Z,-2.72
2017-01-21T05:33:15.378Z,-2.73
2017-01-21T05:34:26.773Z,-2.68
2017-01-21T05:35:38.163Z,-2.72
2017-01-21T05:36:49.548Z,-2.75
2017-01-21T05:38:01.195Z,-2.73
2017-01-21T05:39:12.582Z,-2.7
2017-01-21T05:40:23.974Z,-2.75
2017-01-21T05:41:35.368Z,-2.79
2017-01-21T05:42:46.769Z,-2.81
2017-01-21T05:43:58.210Z,-2.78
2017-01-21T05:45:09.597Z,-2.76
2017-01-21T05:46:20.985Z,-2.79
2017-01-21T05:47:32.373Z,-2.81
2017-01-21T05:48:43.765Z,-2.81
2017-01-21T05:49:55.206Z,-2.81
2017-01-21T05:51:06.595Z,-2.81
2017-01-21T05:52:17.988Z,-2.81
2017-01-21T05:53:29.579Z,-2.78
2017-01-21T05:54:41.181Z,-2.73
2017-01-21T05:55:52.628Z,-2.76
2017-01-21T05:57:04.018Z,-2.72
2017-01-21T05:58:15.416Z,-2.72
2017-01-21T05:59:26.806Z,-2.64
2017-01-21T06:00:38.405Z,-2.75
2017-01-21T06:01:49.849Z,-2.82
2017-01-21T06:03:01.442Z,-2.64
2017-01-21T06:04:12.835Z,-2.73
2017-01-21T06:05:24.232Z,-2.7
2017-01-21T06:06:35.632Z,-2.7
2017-01-21T06:07:47.276Z,-2.79
2017-01-21T06:08:58.670Z,-2.76
2017-01-21T06:10:10.059Z,-2.79
2017-01-21T06:11:21.652Z,-2.83
2017-01-21T06:12:33.041Z,-2.72
2017-01-21T06:13:44.481Z,-2.75
2017-01-21T06:14:55.877Z,-2.79
2017-01-21T06:16:07.466Z,-2.73
2017-01-21T06:17:18.868Z,-2.79
2017-01-21T06:18:30.265Z,-2.76
2017-01-21T06:19:41.742Z,-2.75
2017-01-21T06:20:53.141Z,-2.82
2017-01-21T06:22:04.536Z,-2.81
2017-01-21T06:23:15.931Z,-2.75
2017-01-21T06:24:27.521Z,-2.76
2017-01-21T06:25:38.962Z,-2.79
2017-01-21T06:26:50.353Z,-2.78
2017-01-21T06:28:01.746Z,-2.78
2017-01-21T06:29:13.145Z,-2.78
2017-01-21T06:30:24.537Z,-2.7
2017-01-21T06:31:35.969Z,-2.82
2017-01-21T06:32:47.360Z,-2.76
2017-01-21T06:33:58.759Z,-2.83
2017-01-21T06:35:10.145Z,-2.83
2017-01-21T06:36:21.539Z,-2.81
2017-01-21T06:37:32.983Z,-2.81
2017-01-21T06:38:44.372Z,-2.9
2017-01-21T06:39:55.772Z,-2.9
2017-01-21T06:41:07.157Z,-2.97
2017-01-21T06:42:18.548Z,-2.94
2017-01-21T06:43:29.985Z,-2.96
2017-01-21T06:44:41.373Z,-2.94
2017-01-21T06:45:52.777Z,-2.91
2017-01-21T06:47:04.175Z,-2.94
2017-01-21T06:48:15.574Z,-2.91
2017-01-21T06:49:27.020Z,-2.93
2017-01-21T06:50:38.409Z,-2.88
2017-01-21T06:51:49.844Z,-2.96
2017-01-21T06:53:01.245Z,-2.93
2017-01-21T06:54:12.635Z,-2.96
2017-01-21T06:55:24.074Z,-2.93
2017-01-21T06:56:35.474Z,-2.9
2017-01-21T06:57:46.868Z,-2.88
2017-01-21T06:58:58.258Z,-2.94
2017-01-21T07:00:09.647Z,-2.9
2017-01-21T07:01:21.091Z,-2.86
2017-01-21T07:02:32.488Z,-2.85
2017-01-21T07:03:43.885Z,-2.94
2017-01-21T07:04:55.488Z,-2.93
2017-01-21T07:06:07.088Z,-2.9
2017-01-21T07:07:18.741Z,-2.9
2017-01-21T07:08:30.147Z,-2.94
2017-01-21T07:09:41.546Z,-2.9
2017-01-21T07:10:52.947Z,-2.91
2017-01-21T07:12:04.338Z,-2.86
2017-01-21T07:13:15.784Z,-2.93
2017-01-21T07:14:27.171Z,-2.91
2017-01-21T07:15:38.562Z,-2.88
2017-01-21T07:16:49.957Z,-2.96
2017-01-21T07:18:01.341Z,-2.96
2017-01-21T07:19:13.187Z,-2.9
2017-01-21T07:20:24.578Z,-2.88
2017-01-21T07:21:35.983Z,-2.9
2017-01-21T07:22:47.584Z,-2.86
2017-01-21T07:23:58.976Z,-2.9
2017-01-21T07:25:10.423Z,-2.9
2017-01-21T07:26:22.022Z,-2.9
2017-01-21T07:27:33.415Z,-2.88
2017-01-21T07:28:44.810Z,-2.91
2017-01-21T07:29:56.201Z,-2.91
2017-01-21T07:31:07.641Z,-2.93
2017-01-21T07:32:19.033Z,-2.93
2017-01-21T07:33:30.433Z,-2.93
2017-01-21T07:34:41.834Z,-2.93
2017-01-21T07:35:53.232Z,-2.93
2017-01-21T07:37:04.679Z,-2.9
2017-01-21T07:38:16.066Z,-2.9
2017-01-21T07:39:27.669Z,-2.83
2017-01-21T07:40:39.054Z,-2.91
2017-01-21T07:41:50.457Z,-2.79
2017-01-21T07:43:01.903Z,-2.78
2017-01-21T07:44:13.506Z,-2.75
2017-01-21T07:45:24.891Z,-2.83
2017-01-21T07:46:36.287Z,-2.78
2017-01-21T07:47:47.683Z,-2.7
2017-01-21T07:48:59.083Z,-2.75
2017-01-21T07:50:10.476Z,-2.78
2017-01-21T07:51:21.868Z,-2.75
2017-01-21T07:52:33.271Z,-2.75
2017-01-21T07:53:44.715Z,-2.65
2017-01-21T07:54:56.104Z,-2.62
2017-01-21T07:56:07.501Z,-2.58
2017-01-21T07:57:18.895Z,-2.7
2017-01-21T07:58:30.297Z,-2.7
2017-01-21T07:59:41.733Z,-2.67
2017-01-21T08:00:53.133Z,-2.67
2017-01-21T08:02:04.525Z,-2.6
2017-01-21T08:03:16.117Z,-2.62
2017-01-21T08:04:27.716Z,-2.57
2017-01-21T08:05:39.560Z,-2.57
2017-01-21T08:06:51.358Z,-2.64
2017-01-21T08:08:02.758Z,-2.47
2017-01-21T08:09:14.355Z,-2.62
2017-01-21T08:10:25.759Z,-2.37
2017-01-21T08:11:37.210Z,-2.37
2017-01-21T08:12:48.602Z,-2.23
2017-01-21T08:14:00.000Z,-2.14
2017-01-21T08:15:11.400Z,-1.96
2017-01-21T08:16:23.028Z,-1.78
2017-01-21T08:17:34.475Z,-1.56
2017-01-21T08:18:45.874Z,-1.28
2017-01-21T08:19:57.466Z,-1.01
2017-01-21T08:21:08.862Z,-0.89
2017-01-21T08:22:20.255Z,-0.91
2017-01-21T08:23:31.902Z,-0.8
2017-01-21T08:24:43.304Z,-0.82
2017-01-21T08:25:54.699Z,-0.89
2017-01-21T08:27:06.095Z,-0.91
2017-01-21T08:28:17.491Z,-0.87
2017-01-21T08:29:29.137Z,-0.92
2017-01-21T08:30:40.536Z,-0.92
2017-01-21T08:31:51.931Z,-0.87
2017-01-21T08:33:03.326Z,-0.7
2017-01-21T08:34:14.917Z,-0.54
2017-01-21T08:35:26.367Z,-0.54
2017-01-21T08:36:37.758Z,-0.4
2017-01-21T08:37:49.152Z,-0.4
2017-01-21T08:39:00.540Z,-0.2
2017-01-21T08:40:11.935Z,-0.01
2017-01-21T08:41:23.404Z,0.09
2017-01-21T08:42:34.794Z,0.19
2017-01-21T08:43:46.400Z,0.23
2017-01-21T08:44:57.995Z,0.37
2017-01-21T08:46:09.400Z,0.44
2017-01-21T08:47:20.847Z,0.79
2017-01-21T08:48:32.277Z,1.04
2017-01-21T08:49:43.873Z,1.42
2017-01-21T08:50:55.268Z,1.74
2017-01-21T08:52:06.694Z,1.98
2017-01-21T08:53:18.146Z,1.98
2017-01-21T08:54:29.556Z,1.87
2017-01-21T08:55:40.953Z,1.93
2017-01-21T08:56:52.562Z,2.08
2017-01-21T08:58:03.949Z,2.34
2017-01-21T08:59:15.599Z,2.55
2017-01-21T09:00:27.023Z,2.83
2017-01-21T09:01:38.449Z,3.29
2017-01-21T09:02:49.852Z,3.61
2017-01-21T09:04:01.248Z,4.1
2017-01-21T09:05:12.898Z,4.48
2017-01-21T09:06:24.308Z,4.94
2017-01-21T09:07:35.705Z,5.13
2017-01-21T09:08:47.111Z,5.46
2017-01-21T09:09:58.509Z,5.67
2017-01-21T09:11:09.963Z,5.77
2017-01-21T09:12:21.378Z,5.95
2017-01-21T09:13:32.778Z,5.99
2017-01-21T09:14:44.184Z,6.1
2017-01-21T09:15:55.585Z,6.25
2017-01-21T09:17:07.040Z,6.58
2017-01-21T09:18:18.438Z,6.72
2017-01-21T09:19:29.844Z,6.93
2017-01-21T09:20:41.246Z,7.01
2017-01-21T09:21:52.648Z,7.13
2017-01-21T09:23:04.113Z,7.11
2017-01-21T09:24:15.523Z,7.29
2017-01-21T09:25:26.930Z,7.58
2017-01-21T09:26:38.342Z,7.78
2017-01-21T09:27:49.775Z,7.85
2017-01-21T09:29:01.239Z,7.83
2017-01-21T09:30:12.643Z,7.78
2017-01-21T09:31:24.056Z,8.01
2017-01-21T09:32:35.476Z,8.24
2017-01-21T09:33:46.889Z,8.47
2017-01-21T09:34:58.357Z,8.58
2017-01-21T09:36:09.760Z,8.79
2017-01-21T09:37:21.374Z,8.72
2017-01-21T09:38:32.985Z,8.69
2017-01-21T09:39:44.392Z,8.71
2017-01-21T09:40:56.052Z,8.74
2017-01-21T09:42:07.867Z,8.98
2017-01-21T09:43:19.276Z,8.85
2017-01-21T09:44:30.686Z,8.97
2017-01-21T09:45:42.107Z,8.92
2017-01-21T09:46:53.593Z,9
2017-01-21T09:48:05.006Z,9.16
2017-01-21T09:49:16.426Z,9.42
2017-01-21T09:50:27.846Z,9.53
2017-01-21T09:51:39.457Z,9.82
2017-01-21T09:52:50.919Z,9.96
2017-01-21T09:54:02.332Z,10.38
2017-01-21T09:55:13.752Z,10.44
2017-01-21T09:56:25.165Z,10.67
2017-01-21T09:57:37.177Z,10.91
2017-01-21T09:58:48.634Z,11.05
2017-01-21T10:00:00.060Z,11.12
2017-01-21T10:01:11.470Z,11.1
2017-01-21T10:02:23.087Z,11.13
2017-01-21T10:03:34.504Z,11.28
2017-01-21T10:04:45.980Z,11.27
2017-01-21T10:05:57.601Z,11.24
2017-01-21T10:07:09.017Z,11.2
2017-01-21T10:08:20.646Z,11.05
2017-01-21T10:09:32.077Z,10.91
2017-01-21T10:10:43.536Z,10.76
2017-01-21T10:11:54.951Z,10.67
2017-01-21T10:13:06.367Z,10.69
2017-01-21T10:14:17.788Z,10.66
2017-01-21T10:15:29.403Z,10.75
2017-01-21T10:16:40.865Z,10.73
2017-01-21T10:17:52.284Z,10.58
2017-01-21T10:19:03.906Z,10.25
2017-01-21T10:20:15.312Z,10.18
2017-01-21T10:21:26.730Z,10.13
2017-01-21T10:22:38.194Z,9.99
2017-01-21T10:23:49.615Z,10.1
2017-01-21T10:25:01.031Z,10.02
2017-01-21T10:26:12.443Z,9.96
2017-01-21T10:27:23.859Z,9.75
2017-01-21T10:28:35.535Z,9.84
2017-01-21T10:29:47.362Z,9.8
2017-01-21T10:30:58.783Z,10.28
2017-01-21T10:32:10.194Z,10.51
2017-01-21T10:33:21.619Z,10.76
2017-01-21T10:34:33.284Z,10.73
2017-01-21T10:35:44.709Z,10.91
2017-01-21T10:36:56.153Z,10.98
2017-01-21T10:38:07.568Z,11.06
2017-01-21T10:39:18.983Z,11.15
2017-01-21T10:40:30.453Z,11.53
2017-01-21T10:41:41.875Z,11.78
2017-01-21T10:42:53.299Z,11.85
2017-01-21T10:44:04.718Z,12.03
2017-01-21T10:45:16.144Z,12.1
2017-01-21T10:46:27.812Z,12.04
2017-01-21T10:47:39.217Z,12.2
2017-01-21T10:48:50.643Z,12.33
2017-01-21T10:50:02.062Z,12.58
2017-01-21T10:51:13.679Z,12.25
2017-01-21T10:52:25.153Z,12.11
2017-01-21T10:53:36.563Z,12.13
2017-01-21T10:54:47.980Z,12.07
2017-01-21T10:55:59.598Z,12.05
2017-01-21T10:57:11.017Z,11.86
2017-01-21T10:58:22.492Z,11.53
2017-01-21T10:59:33.920Z,11.56
2017-01-21T11:00:45.347Z,11.63
2017-01-21T11:01:56.764Z,11.41
2017-01-21T11:03:08.183Z,11.45
2017-01-21T11:04:19.845Z,11.48
2017-01-21T11:05:31.454Z,11.08
2017-01-21T11:06:43.081Z,11.06
2017-01-21T11:07:54.496Z,11.31
2017-01-21T11:09:05.914Z,11.18
2017-01-21T11:10:17.369Z,11.2
2017-01-21T11:11:28.782Z,11.26
2017-01-21T11:12:40.217Z,11.06
2017-01-21T11:13:51.838Z,11.08
2017-01-21T11:15:03.259Z,11.2
2017-01-21T11:16:14.721Z,11.24
2017-01-21T11:17:26.165Z,11.15
2017-01-21T11:18:37.811Z,11.03
2017-01-21T11:19:49.231Z,11.16
2017-01-21T11:21:00.643Z,11.24
2017-01-21T11:22:12.111Z,11.26
2017-01-21T11:23:23.726Z,11.39
2017-01-21T11:24:35.348Z,11.16
2017-01-21T11:25:46.770Z,11.03
2017-01-21T11:26:58.399Z,11.06
2017-01-21T11:28:09.874Z,10.94
2017-01-21T11:29:21.291Z,10.83
2017-01-21T11:30:32.697Z,10.69
2017-01-21T11:31:44.105Z,10.79
2017-01-21T11:32:55.513Z,10.77
2017-01-21T11:34:06.978Z,10.75
2017-01-21T11:35:18.592Z,10.33
2017-01-21T11:36:30.003Z,9.77
2017-01-21T11:37:41.420Z,9.52
2017-01-21T11:38:52.838Z,9.39
2017-01-21T11:40:04.301Z,9.45
2017-01-21T11:41:15.717Z,9.37
2017-01-21T11:42:27.126Z,9.29
2017-01-21T11:43:38.543Z,9.12
2017-01-21T11:44:49.951Z,9.2
2017-01-21T11:46:01.415Z,9.14
2017-01-21T11:47:12.820Z,9.09
2017-01-21T11:48:24.442Z,9.16
2017-01-21T11:49:35.842Z,9
2017-01-21T11:50:47.248Z,8.8
2017-01-21T11:51:58.704Z,8.62
2017-01-21T11:53:10.311Z,8.65
2017-01-21T11:54:21.719Z,8.74
2017-01-21T11:55:33.328Z,8.77
2017-01-21T11:56:44.936Z,8.94
2017-01-21T11:57:56.396Z,9.16
2017-01-21T11:59:07.805Z,9.42
2017-01-21T12:00:19.210Z,9.75
2017-01-21T12:01:30.618Z,9.8
2017-01-21T12:02:42.028Z,9.77
2017-01-21T12:03:53.491Z,9.64
2017-01-21T12:05:05.108Z,9.64
2017-01-21T12:06:16.513Z,9.7
2017-01-21T12:07:27.918Z,9.77
2017-01-21T12:08:39.328Z,9.95
2017-01-21T12:09:50.792Z,9.99
2017-01-21T12:11:02.257Z,10.15
2017-01-21T12:12:13.665Z,10.03
2017-01-21T12:13:25.068Z,9.98
2017-01-21T12:14:36.684Z,9.77
2017-01-21T12:15:48.145Z,9.44
2017-01-21T12:16:59.757Z,9.27
2017-01-21T12:18:11.372Z,9.16
2017-01-21T12:19:22.779Z,8.86
2017-01-21T12:20:34.191Z,8.74
2017-01-21T12:21:45.679Z,8.67
2017-01-21T12:22:57.092Z,8.71
2017-01-21T12:24:08.507Z,8.83
2017-01-21T12:25:19.923Z,9.09
2017-01-21T12:26:31.326Z,9.39
2017-01-21T12:27:42.774Z,9.48
2017-01-21T12:28:54.186Z,9.55
2017-01-21T12:30:05.798Z,9.7
2017-01-21T12:31:17.204Z,9.55
2017-01-21T12:32:28.617Z,9.41
2017-01-21T12:33:40.073Z,9.39
2017-01-21T12:34:51.475Z,9.62
2017-01-21T12:36:02.876Z,9.84
2017-01-21T12:37:14.290Z,9.84
2017-01-21T12:38:25.703Z,9.77
2017-01-21T12:39:37.155Z,9.57
2017-01-21T12:40:48.964Z,9.6
2017-01-21T12:42:00.385Z,9.77
2017-01-21T12:43:12.006Z,9.99
2017-01-21T12:44:23.412Z,10.25
2017-01-21T12:45:34.871Z,10.13
2017-01-21T12:46:46.281Z,9.99
2017-01-21T12:47:57.694Z,10.25
2017-01-21T12:49:09.099Z,10.65
2017-01-21T12:50:20.705Z,10.87
2017-01-21T12:51:32.165Z,11.08
2017-01-21T12:52:43.571Z,10.97
2017-01-21T12:53:54.975Z,11.03
2017-01-21T12:55:06.379Z,10.98
2017-01-21T12:56:17.788Z,10.69
2017-01-21T12:57:29.241Z,10.32
2017-01-21T12:58:40.654Z,10.14
2017-01-21T12:59:52.261Z,10.23
2017-01-21T13:01:03.667Z,10.31
2017-01-21T13:02:15.069Z,10.39
2017-01-21T13:03:26.524Z,10.42
2017-01-21T13:04:37.956Z,10.66
2017-01-21T13:05:49.357Z,10.49
2017-01-21T13:07:00.969Z,10.47
2017-01-21T13:08:12.603Z,10.52
2017-01-21T13:09:24.062Z,10.42
2017-01-21T13:10:35.464Z,10.72
2017-01-21T13:11:46.881Z,10.61
2017-01-21T13:12:58.290Z,10.52
2017-01-21T13:14:09.699Z,10.33
2017-01-21T13:15:21.155Z,10.11
2017-01-21T13:16:32.553Z,9.99
2017-01-21T13:17:43.961Z,9.96
2017-01-21T13:18:55.369Z,9.96
2017-01-21T13:20:06.780Z,9.88
2017-01-21T13:21:18.237Z,9.85
2017-01-21T13:22:29.653Z,9.72
2017-01-21T13:23:41.050Z,9.67
2017-01-21T13:24:52.654Z,9.7
2017-01-21T13:26:04.057Z,9.7
2017-01-21T13:27:15.720Z,9.5
2017-01-21T13:28:27.124Z,9.42
2017-01-21T13:29:38.543Z,9.57
2017-01-21T13:30:49.961Z,9.52
2017-01-21T13:32:01.360Z,9.44
2017-01-21T13:33:12.817Z,9.38
2017-01-21T13:34:24.450Z,9.32
2017-01-21T13:35:35.857Z,9.11
2017-01-21T13:36:47.461Z,8.85
2017-01-21T13:37:58.864Z,8.87
2017-01-21T13:39:10.326Z,8.83
2017-01-21T13:40:21.744Z,8.89
2017-01-21T13:41:33.344Z,8.72
2017-01-21T13:42:44.755Z,8.77
2017-01-21T13:43:56.162Z,9.08
2017-01-21T13:45:07.619Z,9.09
2017-01-21T13:46:19.218Z,8.97
2017-01-21T13:47:30.627Z,9.04
2017-01-21T13:48:42.033Z,9
2017-01-21T13:49:53.634Z,8.86
2017-01-21T13:51:05.281Z,8.61
2017-01-21T13:52:16.686Z,8.44
2017-01-21T13:53:28.085Z,8.57
2017-01-21T13:54:39.497Z,8.6
2017-01-21T13:55:51.105Z,8.61
2017-01-21T13:57:02.557Z,8.65
2017-01-21T13:58:13.960Z,8.58
2017-01-21T13:59:25.369Z,8.57
2017-01-21T14:00:36.776Z,8.32
2017-01-21T14:01:48.183Z,8.09
2017-01-21T14:02:59.642Z,7.77
2017-01-21T14:04:11.050Z,7.52
2017-01-21T14:05:22.455Z,7.45
2017-01-21T14:06:33.853Z,7.48
2017-01-21T14:07:45.283Z,7.47
2017-01-21T14:08:56.734Z,7.4
2017-01-21T14:10:08.138Z,7.36
2017-01-21T14:11:19.547Z,7.31
2017-01-21T14:12:30.955Z,7.22
2017-01-21T14:13:42.356Z,6.93
2017-01-21T14:14:53.809Z,6.75
2017-01-21T14:16:05.210Z,6.57
2017-01-21T14:17:16.610Z,6.37
2017-01-21T14:18:28.010Z,6.34
2017-01-21T14:19:39.618Z,6.18
2017-01-21T14:20:51.065Z,6.18
2017-01-21T14:22:02.470Z,6.13
2017-01-21T14:23:14.079Z,5.95
2017-01-21T14:24:25.481Z,6.06
2017-01-21T14:25:36.887Z,5.91
2017-01-21T14:26:48.565Z,5.82
2017-01-21T14:27:59.971Z,5.87
2017-01-21T14:29:11.390Z,5.73
2017-01-21T14:30:22.793Z,5.69
2017-01-21T14:31:34.188Z,5.55
2017-01-21T14:32:45.647Z,5.51
2017-01-21T14:33:57.059Z,5.46
2017-01-21T14:35:08.461Z,5.45
2017-01-21T14:36:19.857Z,5.27
2017-01-21T14:37:31.264Z,5.36
2017-01-21T14:38:42.932Z,5.26
2017-01-21T14:39:54.335Z,5.28
2017-01-21T14:41:05.739Z,5.23
2017-01-21T14:42:17.139Z,5.16
2017-01-21T14:43:28.755Z,5.1
2017-01-21T14:44:40.402Z,5.1
2017-01-21T14:45:52.004Z,5.13
2017-01-21T14:47:03.404Z,5.06
2017-01-21T14:48:14.806Z,4.98
2017-01-21T14:49:26.208Z,5
2017-01-21T14:50:37.657Z,5.03
2017-01-21T14:51:49.261Z,5
2017-01-21T14:53:00.660Z,4.95
2017-01-21T14:54:12.068Z,5
2017-01-21T14:55:23.467Z,5
2017-01-21T14:56:34.915Z,4.95
2017-01-21T14:57:46.315Z,5.02
2017-01-21T14:58:57.917Z,4.94
2017-01-21T15:00:09.321Z,4.87
2017-01-21T15:01:20.724Z,4.94
2017-01-21T15:02:32.387Z,4.9
2017-01-21T15:03:43.990Z,5
2017-01-21T15:04:55.391Z,4.98
2017-01-21T15:06:06.790Z,4.97
2017-01-21T15:07:18.179Z,4.91
2017-01-21T15:08:29.633Z,4.94
2017-01-21T15:09:41.225Z,4.9
2017-01-21T15:10:52.630Z,4.9
2017-01-21T15:12:04.037Z,4.91
2017-01-21T15:13:15.437Z,4.94
2017-01-21T15:14:26.890Z,4.85
2017-01-21T15:15:38.486Z,4.98
2017-01-21T15:16:50.087Z,4.91
2017-01-21T15:18:01.498Z,4.92
2017-01-21T15:19:12.895Z,4.84
2017-01-21T15:20:24.542Z,4.83
2017-01-21T15:21:35.937Z,4.85
2017-01-21T15:22:47.334Z,4.84
2017-01-21T15:23:58.736Z,4.83
2017-01-21T15:25:10.143Z,4.74
2017-01-21T15:26:21.602Z,4.71
2017-01-21T15:27:33.191Z,4.87
2017-01-21T15:28:44.598Z,4.72
2017-01-21T15:29:56.000Z,4.85
2017-01-21T15:31:07.406Z,4.72
2017-01-21T15:32:18.847Z,4.64
2017-01-21T15:33:30.447Z,4.57
2017-01-21T15:34:41.854Z,4.61